createdAt,value
2019-04-01T00:01:41.559Z,101569.16
2019-04-01T00:04:10.485Z,101566.43
2019-04-01T00:06:38.903Z,101571.60
2019-04-01T00:09:07.927Z,101573.23
2019-04-01T00:11:36.359Z,101569.44
2019-04-01T00:14:04.922Z,101572.87
2019-04-01T00:16:33.382Z,101566.30
2019-04-01T00:19:03.365Z,101569.21
2019-04-01T00:21:32.527Z,101570.50
2019-04-01T00:24:00.995Z,101576.11
2019-04-01T00:26:29.413Z,101575.17
2019-04-01T00:28:58.630Z,101576.37
2019-04-01T00:31:27.087Z,101580.53
2019-04-01T00:33:55.874Z,101573.94
2019-04-01T00:36:25.110Z,101575.70
2019-04-01T00:38:53.537Z,101574.27
2019-04-01T00:41:21.994Z,101571.02
2019-04-01T00:43:54.066Z,101573.71
2019-04-01T00:46:23.067Z,101578.21
2019-04-01T00:48:51.513Z,101573.71
2019-04-01T00:51:19.944Z,101578.51
2019-04-01T00:53:48.815Z,101568.33
2019-04-01T00:56:17.256Z,101572.95
2019-04-01T00:58:45.783Z,101573.81
2019-04-01T01:01:14.359Z,101575.13
2019-04-01T01:03:42.905Z,101571.14
2019-04-01T01:06:11.342Z,101576.55
2019-04-01T01:08:39.839Z,101575.69
2019-04-01T01:11:11.224Z,101573.51
2019-04-01T01:13:39.728Z,101573.36
2019-04-01T01:16:08.476Z,101568.09
2019-04-01T01:18:38.451Z,101563.48
2019-04-01T01:21:09.247Z,101561.70
2019-04-01T01:23:37.685Z,101566.40
2019-04-01T01:26:06.206Z,101567.25
2019-04-01T01:28:34.627Z,101562.73
2019-04-01T01:31:03.103Z,101560.64
2019-04-01T01:33:31.535Z,101559.30
2019-04-01T01:35:59.974Z,101556.77
2019-04-01T01:38:28.442Z,101556.56
2019-04-01T01:40:56.854Z,101560.70
2019-04-01T01:43:25.309Z,101566.88
2019-04-01T01:45:54.705Z,101565.80
2019-04-01T01:48:23.117Z,101558.70
2019-04-01T01:50:51.546Z,101559.99
2019-04-01T01:53:20.017Z,101560.84
2019-04-01T01:55:48.450Z,101563.97
2019-04-01T01:58:16.883Z,101563.98
2019-04-01T02:00:45.336Z,101559.30
2019-04-01T02:03:13.807Z,101561.52
2019-04-01T02:05:42.226Z,101553.20
2019-04-01T02:08:10.679Z,101556.34
2019-04-01T02:10:39.120Z,101557.50
2019-04-01T02:13:07.552Z,101557.88
2019-04-01T02:15:36.026Z,101551.20
2019-04-01T02:18:04.541Z,101551.38
2019-04-01T02:20:33.026Z,101548.61
2019-04-01T02:23:01.489Z,101558.23
2019-04-01T02:25:29.940Z,101549.53
2019-04-01T02:27:58.776Z,101550.83
2019-04-01T02:30:27.219Z,101549.13
2019-04-01T02:32:55.665Z,101552.69
2019-04-01T02:35:24.102Z,101551.59
2019-04-01T02:37:52.536Z,101549.88
2019-04-01T02:40:22.104Z,101546.67
2019-04-01T02:42:51.292Z,101551.25
2019-04-01T02:45:19.703Z,101541.38
2019-04-01T02:47:48.267Z,101545.22
2019-04-01T02:50:16.741Z,101548.39
2019-04-01T02:52:45.247Z,101543.17
2019-04-01T02:55:13.687Z,101546.76
2019-04-01T02:57:42.121Z,101546.65
2019-04-01T03:00:10.942Z,101538.68
2019-04-01T03:02:39.397Z,101545.39
2019-04-01T03:05:08.065Z,101548.19
2019-04-01T03:07:36.521Z,101542.50
2019-04-01T03:10:06.748Z,101540.45
2019-04-01T03:12:35.179Z,101539.87
2019-04-01T03:15:04.739Z,101538.71
2019-04-01T03:17:33.253Z,101536.77
2019-04-01T03:20:01.749Z,101538.63
2019-04-01T03:22:30.292Z,101538.69
2019-04-01T03:24:58.687Z,101538.59
2019-04-01T03:27:27.130Z,101536.19
2019-04-01T03:29:55.595Z,101537.09
2019-04-01T03:32:24.043Z,101541.95
2019-04-01T03:34:52.620Z,101543.32
2019-04-01T03:37:21.083Z,101541.71
2019-04-01T03:39:49.517Z,101543.13
2019-04-01T03:42:17.945Z,101540.52
2019-04-01T03:44:46.507Z,101541.11
2019-04-01T03:47:14.972Z,101541.64
2019-04-01T03:49:43.403Z,101544.50
2019-04-01T03:52:16.133Z,101546.67
2019-04-01T03:54:44.560Z,101544.22
2019-04-01T03:57:13.024Z,101544.80
2019-04-01T03:59:41.500Z,101541.44
2019-04-01T04:02:09.935Z,101546.77
2019-04-01T04:04:38.356Z,101548.17
2019-04-01T04:07:06.839Z,101544.19
2019-04-01T04:09:35.353Z,101543.77
2019-04-01T04:12:03.804Z,101535.03
2019-04-01T04:14:32.247Z,101534.55
2019-04-01T04:17:00.702Z,101537.41
2019-04-01T04:19:29.149Z,101536.92
2019-04-01T04:21:57.657Z,101540.11
2019-04-01T04:24:26.101Z,101533.92
2019-04-01T04:26:54.573Z,101540.88
2019-04-01T04:29:23.066Z,101533.96
2019-04-01T04:31:51.498Z,101535.89
2019-04-01T04:34:19.939Z,101530.74
2019-04-01T04:36:48.368Z,101536.37
2019-04-01T04:39:16.834Z,101533.96
2019-04-01T04:41:45.245Z,101530.48
2019-04-01T04:44:13.704Z,101531.19
2019-04-01T04:46:42.263Z,101525.92
2019-04-01T04:49:10.661Z,101534.97
2019-04-01T04:51:39.127Z,101526.41
2019-04-01T04:54:07.550Z,101533.78
2019-04-01T04:56:35.988Z,101532.00
2019-04-01T04:59:04.443Z,101528.48
2019-04-01T05:01:32.891Z,101532.45
2019-04-01T05:04:01.392Z,101534.07
2019-04-01T05:06:29.851Z,101541.89
2019-04-01T05:08:58.282Z,101541.41
2019-04-01T05:11:26.704Z,101540.11
2019-04-01T05:13:57.048Z,101544.70
2019-04-01T05:16:25.943Z,101543.41
2019-04-01T05:18:54.409Z,101553.85
2019-04-01T05:21:23.606Z,101549.41
2019-04-01T05:23:53.567Z,101549.38
2019-04-01T05:26:23.329Z,101550.33
2019-04-01T05:28:53.856Z,101553.00
2019-04-01T05:31:25.341Z,101556.55
2019-04-01T05:33:56.008Z,101557.70
2019-04-01T05:36:25.632Z,101565.23
2019-04-01T05:38:54.238Z,101563.59
2019-04-01T05:41:22.740Z,101563.70
2019-04-01T05:43:51.612Z,101563.44
2019-04-01T05:46:20.197Z,101576.22
2019-04-01T05:48:48.787Z,101573.03
2019-04-01T05:51:17.333Z,101576.73
2019-04-01T05:53:47.085Z,101573.95
2019-04-01T05:56:15.568Z,101575.83
2019-04-01T05:58:44.240Z,101566.03
2019-04-01T06:01:17.338Z,101580.90
2019-04-01T06:03:45.781Z,101582.89
2019-04-01T06:06:14.318Z,101580.66
2019-04-01T06:08:42.741Z,101578.78
2019-04-01T06:11:11.251Z,101581.25
2019-04-01T06:13:39.786Z,101584.47
2019-04-01T06:16:08.295Z,101583.95
2019-04-01T06:18:36.795Z,101584.39
2019-04-01T06:21:06.503Z,101583.28
2019-04-01T06:23:35.025Z,101591.28
2019-04-01T06:26:04.099Z,101591.91
2019-04-01T06:28:32.553Z,101590.99
2019-04-01T06:31:01.344Z,101595.19
2019-04-01T06:33:29.891Z,101598.88
2019-04-01T06:35:58.403Z,101599.17
2019-04-01T06:38:26.896Z,101596.93
2019-04-01T06:40:55.405Z,101607.01
2019-04-01T06:43:23.875Z,101604.13
2019-04-01T06:45:52.319Z,101607.06
2019-04-01T06:48:20.925Z,101602.64
2019-04-01T06:50:49.363Z,101604.80
2019-04-01T06:53:17.860Z,101607.38
2019-04-01T06:55:46.445Z,101594.42
2019-04-01T06:58:14.875Z,101601.97
2019-04-01T07:00:43.762Z,101592.03
2019-04-01T07:03:12.635Z,101597.38
2019-04-01T07:05:41.210Z,101598.77
2019-04-01T07:08:10.535Z,101606.37
2019-04-01T07:10:38.970Z,101598.77
2019-04-01T07:13:07.400Z,101598.39
2019-04-01T07:15:36.488Z,101601.12
2019-04-01T07:18:05.087Z,101599.34
2019-04-01T07:20:33.497Z,101591.01
2019-04-01T07:23:02.491Z,101596.06
2019-04-01T07:25:34.081Z,101604.02
2019-04-01T07:28:01.537Z,101595.61
2019-04-01T07:30:30.084Z,101594.04
2019-04-01T07:32:58.497Z,101592.78
2019-04-01T07:35:27.004Z,101602.06
2019-04-01T07:37:55.529Z,101605.22
2019-04-01T07:40:24.000Z,101596.70
2019-04-01T07:42:53.430Z,101613.63
2019-04-01T07:45:21.840Z,101606.81
2019-04-01T07:47:51.748Z,101612.05
2019-04-01T07:50:20.410Z,101603.59
2019-04-01T07:52:49.255Z,101609.84
2019-04-01T07:55:17.675Z,101611.44
2019-04-01T07:57:46.219Z,101601.62
2019-04-01T08:00:14.905Z,101610.41
2019-04-01T08:02:43.409Z,101607.81
2019-04-01T08:05:11.939Z,101618.53
2019-04-01T08:07:40.411Z,101608.73
2019-04-01T08:10:09.815Z,101615.35
2019-04-01T08:12:38.486Z,101610.33
2019-04-01T08:15:08.375Z,101611.15
2019-04-01T08:17:36.950Z,101608.16
2019-04-01T08:20:06.346Z,101610.32
2019-04-01T08:22:35.076Z,101606.87
2019-04-01T08:25:05.618Z,101602.72
2019-04-01T08:27:34.087Z,101603.11
2019-04-01T08:30:02.682Z,101610.07
2019-04-01T08:32:31.241Z,101599.06
2019-04-01T08:34:59.745Z,101596.77
2019-04-01T08:37:28.262Z,101600.50
2019-04-01T08:39:56.762Z,101607.25
2019-04-01T08:42:25.304Z,101591.10
2019-04-01T08:44:53.781Z,101585.16
2019-04-01T08:47:22.315Z,101592.84
2019-04-01T08:49:50.740Z,101614.66
2019-04-01T08:52:19.181Z,101605.38
2019-04-01T08:54:47.743Z,101589.09
2019-04-01T08:57:16.265Z,101593.05
2019-04-01T08:59:44.689Z,101591.80
2019-04-01T09:02:18.277Z,101582.68
2019-04-01T09:04:44.135Z,101582.28
2019-04-01T09:07:12.568Z,101578.95
2019-04-01T09:09:42.585Z,101570.08
2019-04-01T09:12:11.756Z,101576.14
2019-04-01T09:14:41.339Z,101572.58
2019-04-01T09:17:09.790Z,101564.50
2019-04-01T09:19:38.198Z,101562.48
2019-04-01T09:22:06.727Z,101555.69
2019-04-01T09:24:35.234Z,101554.49
2019-04-01T09:27:03.720Z,101554.08
2019-04-01T09:29:32.202Z,101556.38
2019-04-01T09:32:00.614Z,101556.67
2019-04-01T09:34:29.074Z,101557.75
2019-04-01T09:36:57.513Z,101559.91
2019-04-01T09:39:25.957Z,101544.82
2019-04-01T09:41:54.416Z,101542.13
2019-04-01T09:44:36.150Z,101550.11
2019-04-01T09:46:53.103Z,101548.67
2019-04-01T09:49:21.563Z,101538.85
2019-04-01T09:51:50.003Z,101537.02
2019-04-01T09:54:18.520Z,101543.13
2019-04-01T09:56:47.062Z,101535.02
2019-04-01T09:59:15.507Z,101537.17
2019-04-01T10:01:44.026Z,101534.75
2019-04-01T10:04:12.521Z,101525.91
2019-04-01T10:06:40.964Z,101532.56
2019-04-01T10:09:09.535Z,101527.55
2019-04-01T10:11:38.036Z,101532.15
2019-04-01T10:14:07.346Z,101528.77
2019-04-01T10:16:35.794Z,101516.45
2019-04-01T10:19:04.278Z,101517.83
2019-04-01T10:21:32.739Z,101524.30
2019-04-01T10:24:01.220Z,101523.70
2019-04-01T10:26:29.657Z,101513.55
2019-04-01T10:28:58.266Z,101505.47
2019-04-01T10:31:26.702Z,101514.49
2019-04-01T10:33:55.204Z,101514.83
2019-04-01T10:36:23.665Z,101512.72
2019-04-01T10:38:52.221Z,101499.91
2019-04-01T10:41:20.704Z,101505.75
2019-04-01T10:43:49.154Z,101488.23
2019-04-01T10:46:17.583Z,101496.39
2019-04-01T10:48:46.105Z,101494.80
2019-04-01T10:51:14.570Z,101487.13
2019-04-01T10:53:43.278Z,101496.42
2019-04-01T10:56:11.944Z,101484.55
2019-04-01T10:58:40.489Z,101482.31
2019-04-01T11:01:08.978Z,101467.61
2019-04-01T11:03:37.669Z,101468.38
2019-04-01T11:06:06.097Z,101469.77
2019-04-01T11:08:35.110Z,101460.33
2019-04-01T11:11:03.624Z,101452.68
2019-04-01T11:13:32.703Z,101456.50
2019-04-01T11:16:01.175Z,101450.55
2019-04-01T11:18:29.582Z,101459.00
2019-04-01T11:20:58.056Z,101456.48
2019-04-01T11:23:26.876Z,101453.61
2019-04-01T11:25:55.290Z,101446.30
2019-04-01T11:28:23.761Z,101440.80
2019-04-01T11:30:52.184Z,101448.03
2019-04-01T11:33:20.593Z,101447.59
2019-04-01T11:35:49.185Z,101441.17
2019-04-01T11:38:17.704Z,101424.91
2019-04-01T11:40:46.237Z,101426.75
2019-04-01T11:43:14.740Z,101422.95
2019-04-01T11:45:43.229Z,101419.09
2019-04-01T11:48:11.716Z,101425.53
2019-04-01T11:50:40.258Z,101419.09
2019-04-01T11:53:08.755Z,101421.66
2019-04-01T11:55:37.307Z,101404.61
2019-04-01T11:58:05.734Z,101406.29
2019-04-01T12:00:34.361Z,101396.91
2019-04-01T12:03:03.030Z,101387.98
2019-04-01T12:05:31.530Z,101381.19
2019-04-01T12:08:00.044Z,101376.91
2019-04-01T12:10:28.590Z,101382.05
2019-04-01T12:12:57.006Z,101367.97
2019-04-01T12:15:25.819Z,101369.70
2019-04-01T12:17:54.254Z,101362.87
2019-04-01T12:20:22.777Z,101365.41
2019-04-01T12:22:51.229Z,101345.81
2019-04-01T12:25:19.650Z,101352.20
2019-04-01T12:27:48.144Z,101343.69
2019-04-01T12:30:16.766Z,101350.09
2019-04-01T12:32:45.188Z,101347.45
2019-04-01T12:35:13.727Z,101346.23
2019-04-01T12:37:42.317Z,101348.35
2019-04-01T12:40:11.538Z,101341.96
2019-04-01T12:42:40.065Z,101328.30
2019-04-01T12:45:10.387Z,101328.31
2019-04-01T12:47:42.979Z,101326.58
2019-04-01T12:50:09.825Z,101328.28
2019-04-01T12:52:38.296Z,101327.45
2019-04-01T12:55:08.279Z,101316.36
2019-04-01T12:57:36.738Z,101312.45
2019-04-01T13:00:08.852Z,101309.02
2019-04-01T13:02:37.514Z,101297.02
2019-04-01T13:05:07.581Z,101296.62
2019-04-01T13:07:36.274Z,101294.98
2019-04-01T13:10:07.488Z,101288.14
2019-04-01T13:12:36.011Z,101285.92
2019-04-01T13:15:05.137Z,101293.53
2019-04-01T13:17:33.554Z,101272.23
2019-04-01T13:20:02.079Z,101273.94
2019-04-01T13:22:30.543Z,101274.78
2019-04-01T13:24:59.038Z,101264.52
2019-04-01T13:27:28.874Z,101266.64
2019-04-01T13:29:57.400Z,101255.55
2019-04-01T13:32:25.856Z,101255.89
2019-04-01T13:34:54.314Z,101251.77
2019-04-01T13:37:22.753Z,101247.92
2019-04-01T13:39:51.238Z,101242.36
2019-04-01T13:42:19.708Z,101237.21
2019-04-01T13:44:48.134Z,101237.62
2019-04-01T13:47:16.602Z,101222.69
2019-04-01T13:49:45.022Z,101223.42
2019-04-01T13:52:13.531Z,101226.42
2019-04-01T13:54:42.145Z,101215.73
2019-04-01T13:57:10.614Z,101214.05
2019-04-01T13:59:49.217Z,101208.02
2019-04-01T14:02:09.352Z,101205.77
2019-04-01T14:04:37.801Z,101198.09
2019-04-01T14:07:06.312Z,101193.44
2019-04-01T14:09:34.773Z,101192.02
2019-04-01T14:12:03.246Z,101185.97
2019-04-01T14:14:31.662Z,101183.11
2019-04-01T14:17:00.190Z,101181.50
2019-04-01T14:19:28.615Z,101177.62
2019-04-01T14:21:57.074Z,101176.20
2019-04-01T14:24:25.625Z,101178.28
2019-04-01T14:26:56.588Z,101170.18
2019-04-01T14:29:24.316Z,101162.15
2019-04-01T14:31:52.815Z,101156.67
2019-04-01T14:34:23.186Z,101157.03
2019-04-01T14:36:51.612Z,101145.50
2019-04-01T14:39:20.372Z,101145.44
2019-04-01T14:41:48.876Z,101149.73
2019-04-01T14:44:17.813Z,101142.92
2019-04-01T14:46:46.535Z,101147.11
2019-04-01T14:49:15.172Z,101134.30
2019-04-01T14:51:43.797Z,101130.84
2019-04-01T14:54:12.556Z,101105.61
2019-04-01T14:56:41.014Z,101119.81
2019-04-01T14:59:09.485Z,101135.29
2019-04-01T15:01:39.151Z,101111.30
2019-04-01T15:04:07.657Z,101131.53
2019-04-01T15:06:36.238Z,101115.42
2019-04-01T15:09:07.093Z,101105.76
2019-04-01T15:11:37.996Z,101097.06
2019-04-01T15:14:08.523Z,101098.03
2019-04-01T15:16:38.132Z,101102.64
2019-04-01T15:19:06.834Z,101096.58
2019-04-01T15:21:36.187Z,101095.06
2019-04-01T15:24:04.963Z,101070.38
2019-04-01T15:26:34.003Z,101073.33
2019-04-01T15:29:04.221Z,101071.00
2019-04-01T15:31:32.844Z,101068.44
2019-04-01T15:34:01.587Z,101065.13
2019-04-01T15:36:30.084Z,101053.48
2019-04-01T15:38:58.961Z,101060.39
2019-04-01T15:41:27.711Z,101047.70
2019-04-01T15:43:56.228Z,101040.63
2019-04-01T15:46:24.844Z,101036.63
2019-04-01T15:48:53.401Z,101037.52
2019-04-01T15:51:22.726Z,101035.34
2019-04-01T15:53:51.294Z,101040.03
2019-04-01T15:56:19.732Z,101038.80
2019-04-01T15:58:50.745Z,101028.54
2019-04-01T16:01:19.172Z,101039.08
2019-04-01T16:03:48.009Z,101040.02
2019-04-01T16:06:16.968Z,101025.54
2019-04-01T16:08:45.582Z,101020.52
2019-04-01T16:11:14.116Z,101015.79
2019-04-01T16:13:43.192Z,101014.11
2019-04-01T16:16:14.492Z,101006.92
2019-04-01T16:18:42.491Z,101006.87
2019-04-01T16:21:11.024Z,101010.27
2019-04-01T16:23:39.784Z,101013.27
2019-04-01T16:26:09.663Z,101001.31
2019-04-01T16:28:38.552Z,101005.20
2019-04-01T16:31:07.074Z,101004.08
2019-04-01T16:33:37.249Z,101004.48
2019-04-01T16:36:05.948Z,100997.67
2019-04-01T16:38:34.716Z,100994.72
2019-04-01T16:41:03.153Z,100987.88
2019-04-01T16:43:31.675Z,100993.95
2019-04-01T16:46:00.176Z,100982.87
2019-04-01T16:48:28.717Z,100989.66
2019-04-01T16:50:57.308Z,100980.80
2019-04-01T16:53:26.110Z,100985.08
2019-04-01T16:55:54.797Z,100988.92
2019-04-01T16:58:23.423Z,100981.73
2019-04-01T17:00:52.217Z,100990.25
2019-04-01T17:03:21.894Z,100983.86
2019-04-01T17:05:50.574Z,100986.02
2019-04-01T17:08:19.768Z,100986.86
2019-04-01T17:10:48.351Z,100986.86
2019-04-01T17:13:16.935Z,100988.72
2019-04-01T17:15:45.467Z,100979.75
2019-04-01T17:18:14.125Z,100976.75
2019-04-01T17:20:42.834Z,100985.80
2019-04-01T17:23:11.284Z,100984.59
2019-04-01T17:25:39.727Z,100983.72
2019-04-01T17:28:08.286Z,100982.48
2019-04-01T17:30:36.789Z,100973.53
2019-04-01T17:33:08.201Z,100985.92
2019-04-01T17:35:35.663Z,100985.12
2019-04-01T17:38:04.101Z,100973.64
2019-04-01T17:40:32.698Z,100964.77
2019-04-01T17:43:01.195Z,100972.96
2019-04-01T17:45:36.741Z,100976.70
2019-04-01T17:48:06.329Z,100967.34
2019-04-01T17:50:35.316Z,100972.09
2019-04-01T17:53:05.951Z,100961.45
2019-04-01T17:55:34.694Z,100962.36
2019-04-01T17:58:03.274Z,100961.92
2019-04-01T18:00:33.396Z,100957.70
2019-04-01T18:03:01.913Z,100968.39
2019-04-01T18:05:33.284Z,100957.34
2019-04-01T18:08:01.777Z,100953.95
2019-04-01T18:10:30.316Z,100954.81
2019-04-01T18:12:58.924Z,100958.67
2019-04-01T18:15:28.126Z,100955.67
2019-04-01T18:17:56.701Z,100960.80
2019-04-01T18:20:27.415Z,100958.29
2019-04-01T18:22:56.232Z,100956.58
2019-04-01T18:25:25.832Z,100957.44
2019-04-01T18:27:54.827Z,100957.05
2019-04-01T18:30:24.207Z,100956.65
2019-04-01T18:32:55.211Z,100957.10
2019-04-01T18:35:23.130Z,100958.38
2019-04-01T18:37:52.248Z,100956.68
2019-04-01T18:40:31.883Z,100953.72
2019-04-01T18:42:52.100Z,100961.78
2019-04-01T18:45:21.409Z,100959.23
2019-04-01T18:47:51.043Z,100961.39
2019-04-01T18:50:19.831Z,100954.98
2019-04-01T18:52:48.771Z,100956.72
2019-04-01T18:55:17.519Z,100952.88
2019-04-01T18:57:46.473Z,100954.16
2019-04-01T19:00:15.771Z,100954.14
2019-04-01T19:02:44.270Z,100944.80
2019-04-01T19:05:12.875Z,100946.06
2019-04-01T19:07:41.996Z,100943.11
2019-04-01T19:10:11.432Z,100946.52
2019-04-01T19:12:40.348Z,100936.30
2019-04-01T19:15:10.549Z,100940.12
2019-04-01T19:17:39.248Z,100938.83
2019-04-01T19:20:08.026Z,100930.33
2019-04-01T19:22:53.582Z,100939.66
2019-04-01T19:25:23.718Z,100937.11
2019-04-01T19:27:53.650Z,100936.68
2019-04-01T19:30:22.463Z,100936.68
2019-04-01T19:32:52.483Z,100935.81
2019-04-01T19:35:21.252Z,100930.30
2019-04-01T19:37:49.716Z,100928.59
2019-04-01T19:40:20.514Z,100927.30
2019-04-01T19:42:48.966Z,100930.27
2019-04-01T19:45:17.720Z,100925.59
2019-04-01T19:47:46.591Z,100926.02
2019-04-01T19:50:18.231Z,100920.48
2019-04-01T19:52:45.990Z,100918.37
2019-04-01T19:55:14.566Z,100920.48
2019-04-01T19:57:43.374Z,100917.08
2019-04-01T20:00:26.608Z,100912.38
2019-04-01T20:02:43.150Z,100917.48
2019-04-01T20:05:11.666Z,100913.20
2019-04-01T20:07:40.287Z,100913.20
2019-04-01T20:10:08.840Z,100910.21
2019-04-01T20:12:37.277Z,100911.48
2019-04-01T20:15:09.543Z,100907.63
2019-04-01T20:17:39.157Z,100910.20
2019-04-01T20:20:09.314Z,100903.40
2019-04-01T20:22:37.756Z,100908.06
2019-04-01T20:25:08.886Z,100903.39
2019-04-01T20:27:37.480Z,100896.15
2019-04-01T20:30:09.642Z,100894.83
2019-04-01T20:32:38.242Z,100890.17
2019-04-01T20:35:22.315Z,100887.59
2019-04-01T20:37:39.358Z,100881.65
2019-04-01T20:40:08.326Z,100882.89
2019-04-01T20:42:36.960Z,100880.70
2019-04-01T20:45:10.582Z,100877.67
2019-04-01T20:47:37.818Z,100875.55
2019-04-01T20:50:11.112Z,100872.09
2019-04-01T20:52:39.628Z,100869.14
2019-04-01T20:55:08.684Z,100867.02
2019-04-01T20:57:37.692Z,100866.60
2019-04-01T21:00:09.906Z,100859.83
2019-04-01T21:02:38.621Z,100861.48
2019-04-01T21:05:08.359Z,100855.12
2019-04-01T21:07:37.165Z,100850.41
2019-04-01T21:10:07.699Z,100846.29
2019-04-01T21:12:37.266Z,100849.23
2019-04-01T21:15:09.232Z,100836.09
2019-04-01T21:17:37.729Z,100837.35
2019-04-01T21:20:07.969Z,100831.42
2019-04-01T21:22:36.924Z,100827.63
2019-04-01T21:25:07.394Z,100827.98
2019-04-01T21:27:36.045Z,100819.99
2019-04-01T21:30:10.513Z,100819.96
2019-04-01T21:32:39.409Z,100807.63
2019-04-01T21:35:09.476Z,100814.86
2019-04-01T21:37:38.542Z,100806.42
2019-04-01T21:40:08.332Z,100805.52
2019-04-01T21:42:37.592Z,100802.14
2019-04-01T21:45:07.940Z,100793.63
2019-04-01T21:47:36.483Z,100789.37
2019-04-01T21:50:07.100Z,100791.52
2019-04-01T21:52:35.663Z,100790.27
2019-04-01T21:55:07.992Z,100783.02
2019-04-01T21:57:36.512Z,100776.21
2019-04-01T22:00:08.569Z,100779.98
2019-04-01T22:02:37.028Z,100777.89
2019-04-01T22:05:07.615Z,100768.17
2019-04-01T22:07:38.124Z,100759.63
2019-04-01T22:10:07.099Z,100764.34
2019-04-01T22:12:35.664Z,100764.77
2019-04-01T22:15:04.964Z,100757.55
2019-04-01T22:17:34.102Z,100749.02
2019-04-01T22:20:02.918Z,100743.05
2019-04-01T22:22:31.532Z,100740.94
2019-04-01T22:25:00.996Z,100740.10
2019-04-01T22:27:30.012Z,100728.64
2019-04-01T22:29:58.790Z,100726.50
2019-04-01T22:32:27.477Z,100721.41
2019-04-01T22:34:56.258Z,100714.20
2019-04-01T22:37:27.560Z,100713.32
2019-04-01T22:39:55.801Z,100709.06
2019-04-01T22:42:24.555Z,100700.58
2019-04-01T22:44:53.059Z,100711.19
2019-04-01T22:47:24.223Z,100703.09
2019-04-01T22:49:52.094Z,100698.45
2019-04-01T22:52:20.549Z,100688.64
2019-04-01T22:54:49.628Z,100688.59
2019-04-01T22:57:18.441Z,100684.30
2019-04-01T22:59:46.946Z,100687.61
2019-04-01T23:02:15.433Z,100683.42
2019-04-01T23:04:43.925Z,100678.30
2019-04-01T23:07:12.611Z,100672.33
2019-04-01T23:09:41.817Z,100673.97
2019-04-01T23:12:10.920Z,100674.84
2019-04-01T23:14:39.552Z,100673.92
2019-04-01T23:17:09.215Z,100675.20
2019-04-01T23:19:38.645Z,100668.01
2019-04-01T23:22:07.066Z,100673.95
2019-04-01T23:24:37.076Z,100672.64
2019-04-01T23:27:05.696Z,100668.36
2019-04-01T23:29:34.163Z,100665.37
2019-04-01T23:32:02.579Z,100663.22
2019-04-01T23:34:31.077Z,100649.63
2019-04-01T23:36:59.508Z,100655.98
2019-04-01T23:39:27.995Z,100648.76
2019-04-01T23:41:56.457Z,100638.14
2019-04-01T23:44:24.874Z,100635.20
2019-04-01T23:46:53.375Z,100631.75
2019-04-01T23:49:21.889Z,100634.23
2019-04-01T23:51:50.379Z,100626.19
2019-04-01T23:54:18.799Z,100624.08
2019-04-01T23:56:47.275Z,100626.19
2019-04-01T23:59:15.827Z,100621.45
